Time;durP1;ratioP1;P1;durP2;ratioP2;P2;SDS_P1;SDS_P2;PMS_P1;PMS_P2;Temp;Humidity;BMP_temperature;BMP_pressure;BME280_temperature;BME280_humidity;BME280_pressure;Samples;Min_cycle;Max_cycle;Signal;HPM_P1;HPM_P2
2022/10/22 00:01:12;;;;;;;1999.90;999.90;;;15.90;99.90;;;;;;5094154;28;20301;-70
2022/10/22 00:03:37;;;;;;;1999.90;999.90;;;15.80;99.90;;;;;;5094102;28;20175;-71
2022/10/22 00:06:03;;;;;;;1999.90;999.90;;;15.80;99.90;;;;;;5094305;28;20414;-71
2022/10/22 00:08:29;;;;;;;1999.90;999.90;;;15.80;99.90;;;;;;5094181;28;20167;-71
2022/10/22 00:10:54;;;;;;;1999.90;999.90;;;15.80;99.90;;;;;;5094488;28;20197;-71
2022/10/22 00:13:20;;;;;;;1999.90;999.90;;;15.80;99.90;;;;;;5094224;28;20273;-71
2022/10/22 00:15:45;;;;;;;1999.90;999.90;;;15.70;99.90;;;;;;5094155;28;20180;-71
2022/10/22 00:18:11;;;;;;;1999.90;999.90;;;15.70;99.90;;;;;;5092898;28;20197;-71
2022/10/22 00:20:37;;;;;;;1999.90;999.90;;;15.60;99.90;;;;;;5094070;28;20177;-71
2022/10/22 00:23:02;;;;;;;1999.90;999.90;;;15.60;99.90;;;;;;5094076;28;20186;-70
2022/10/22 00:25:28;;;;;;;1999.90;999.90;;;15.60;99.90;;;;;;5093867;28;20202;-71
2022/10/22 00:27:53;;;;;;;1999.90;999.90;;;15.60;99.90;;;;;;5094026;28;20170;-71
2022/10/22 00:30:19;;;;;;;1999.90;999.90;;;15.60;99.90;;;;;;5093889;28;20165;-71
2022/10/22 00:32:44;;;;;;;1999.90;999.90;;;15.60;99.90;;;;;;5093652;28;20264;-71
2022/10/22 00:35:10;;;;;;;1999.90;999.90;;;15.70;99.90;;;;;;5093898;28;20166;-71
2022/10/22 00:37:36;;;;;;;1999.90;999.90;;;15.70;99.90;;;;;;5093634;28;20252;-71
2022/10/22 00:40:02;;;;;;;1999.90;999.90;;;15.70;99.90;;;;;;5093858;28;20172;-71
2022/10/22 00:42:30;;;;;;;1999.90;999.90;;;15.70;99.90;;;;;;5093458;28;20228;-71
2022/10/22 00:45:11;;;;;;;1999.90;999.90;;;15.60;99.90;;;;;;5093584;28;20916;-71
2022/10/22 00:47:40;;;;;;;1999.90;999.90;;;15.70;99.90;;;;;;5093318;28;20775;-71
2022/10/22 00:50:11;;;;;;;1999.90;999.90;;;15.60;99.90;;;;;;5093407;28;20764;-70
2022/10/22 00:52:37;;;;;;;1999.90;999.90;;;15.60;99.90;;;;;;5095248;28;20432;-71
2022/10/22 00:55:04;;;;;;;1999.90;999.90;;;15.50;99.90;;;;;;5094636;28;20411;-71
2022/10/22 00:57:31;;;;;;;1999.90;999.90;;;15.50;99.90;;;;;;5094913;28;20417;-70
2022/10/22 00:59:57;;;;;;;1999.90;999.90;;;15.50;99.90;;;;;;5094631;28;20416;-71
2022/10/22 01:02:23;;;;;;;1999.90;999.90;;;15.50;99.90;;;;;;5093908;28;20428;-71
2022/10/22 01:04:48;;;;;;;1999.90;999.90;;;15.50;99.90;;;;;;5093261;28;20198;-71
2022/10/22 01:07:21;;;;;;;1999.90;999.90;;;15.40;99.90;;;;;;5092928;28;20780;-71
2022/10/22 01:10:01;;;;;;;1999.90;999.90;;;15.40;99.90;;;;;;5093003;28;20164;-71
2022/10/22 01:12:38;;;;;;;1999.90;999.90;;;15.30;99.90;;;;;;5093221;28;20425;-71
2022/10/22 01:15:13;;;;;;;1999.90;999.90;;;15.30;99.90;;;;;;5093186;28;20445;-71
2022/10/22 01:18:04;;;;;;;1999.90;999.90;;;15.30;99.90;;;;;;5092880;28;20421;-71
2022/10/22 01:21:00;;;;;;;1999.90;999.90;;;15.30;99.90;;;;;;5093086;28;20977;-70
2022/10/22 01:23:40;;;;;;;1999.90;999.90;;;15.30;99.90;;;;;;5092693;28;20436;-69
2022/10/22 01:26:14;;;;;;;1999.90;999.90;;;15.30;99.90;;;;;;5092491;28;20427;-70
2022/10/22 01:29:05;;;;;;;1999.90;999.90;;;15.30;99.90;;;;;;5092229;28;20490;-69
2022/10/22 01:31:40;;;;;;;1999.90;999.90;;;15.30;99.90;;;;;;5093386;28;20440;-71
2022/10/22 01:34:07;;;;;;;1999.90;999.90;;;15.30;99.90;;;;;;5094144;28;20432;-71
2022/10/22 01:36:34;;;;;;;1999.90;999.90;;;15.30;99.90;;;;;;5094166;28;20783;-71
2022/10/22 01:39:01;;;;;;;1999.90;999.90;;;15.30;99.90;;;;;;5093343;28;20754;-71
2022/10/22 01:41:30;;;;;;;1999.90;999.90;;;15.30;99.90;;;;;;5092571;28;20404;-71
2022/10/22 01:43:56;;;;;;;1999.90;999.90;;;15.30;99.90;;;;;;5092496;28;20405;-71
2022/10/22 01:46:24;;;;;;;1999.90;999.90;;;15.30;99.90;;;;;;5092469;28;20449;-71
2022/10/22 01:49:34;;;;;;;1999.90;999.90;;;15.30;99.90;;;;;;5092135;28;20167;-70
2022/10/22 01:52:14;;;;;;;1999.90;999.90;;;15.30;99.90;;;;;;5054344;28;20438;-70
2022/10/22 01:55:05;;;;;;;1999.90;999.90;;;15.30;99.90;;;;;;5092217;28;20414;-70
2022/10/22 01:58:05;;;;;;;1999.90;999.90;;;15.30;99.90;;;;;;5086825;28;20429;-70
2022/10/22 02:00:33;;;;;;;1999.90;999.90;;;15.40;99.90;;;;;;5092029;28;20404;-71
2022/10/22 02:03:24;;;;;;;1999.90;999.90;;;15.40;99.90;;;;;;5092099;28;20427;-71
2022/10/22 02:06:07;;;;;;;1999.90;999.90;;;15.40;99.90;;;;;;5092249;28;20523;-71
2022/10/22 02:08:35;;;;;;;1999.90;999.90;;;15.40;99.90;;;;;;5092139;28;20403;-71
2022/10/22 02:11:01;;;;;;;1999.90;999.90;;;15.30;99.90;;;;;;5092394;28;20767;-70
2022/10/22 02:13:36;;;;;;;1999.90;999.90;;;15.30;99.90;;;;;;5091971;28;20425;-71
2022/10/22 02:16:05;;;;;;;1999.90;999.90;;;15.30;99.90;;;;;;5092220;28;20508;-71
2022/10/22 02:18:34;;;;;;;1999.90;999.90;;;15.30;99.90;;;;;;5091718;28;20401;-71
2022/10/22 02:21:00;;;;;;;1999.90;999.90;;;15.20;99.90;;;;;;5092335;28;20444;-71
2022/10/22 02:23:26;;;;;;;1999.90;999.90;;;15.20;99.90;;;;;;5092230;28;20426;-71
2022/10/22 02:26:05;;;;;;;1999.90;999.90;;;15.10;99.90;;;;;;5091746;28;20542;-69
2022/10/22 02:28:36;;;;;;;1999.90;999.90;;;15.10;99.90;;;;;;5091591;28;20405;-70
2022/10/22 02:31:21;;;;;;;1999.90;999.90;;;15.10;99.90;;;;;;5091765;28;20468;-69
2022/10/22 02:33:50;;;;;;;1999.90;999.90;;;15.10;99.90;;;;;;5091763;28;20419;-71
2022/10/22 02:36:17;;;;;;;1999.90;999.90;;;15.10;99.90;;;;;;5091832;28;20410;-71
2022/10/22 02:38:44;;;;;;;1999.90;999.90;;;15.00;99.90;;;;;;5091591;28;20435;-71
2022/10/22 02:41:10;;;;;;;1999.90;999.90;;;15.00;99.90;;;;;;5093236;28;20439;-71
2022/10/22 02:43:43;;;;;;;1999.90;999.90;;;15.10;99.90;;;;;;5095670;28;20764;-71
2022/10/22 02:46:10;;;;;;;1999.90;999.90;;;15.00;99.90;;;;;;5095528;28;20173;-71
2022/10/22 02:48:36;;;;;;;1999.90;999.90;;;15.00;99.90;;;;;;5095624;28;20885;-71
2022/10/22 02:51:02;;;;;;;1999.90;999.90;;;15.10;99.90;;;;;;5096171;28;20400;-70
2022/10/22 02:53:28;;;;;;;1999.90;999.90;;;15.10;99.90;;;;;;5096668;28;20420;-70
2022/10/22 02:55:53;;;;;;;1999.90;999.90;;;15.10;99.90;;;;;;5096000;28;20418;-70
2022/10/22 02:58:19;;;;;;;1999.90;999.90;;;15.10;99.90;;;;;;5095921;28;20652;-70
2022/10/22 03:00:44;;;;;;;1999.90;999.90;;;15.10;99.90;;;;;;5095582;28;20317;-70
2022/10/22 03:03:10;;;;;;;1999.90;999.90;;;15.10;99.90;;;;;;5095239;28;20195;-70
2022/10/22 03:05:35;;;;;;;1999.90;999.90;;;15.20;99.90;;;;;;5095186;28;20197;-70
2022/10/22 03:08:01;;;;;;;1999.90;999.90;;;15.20;99.90;;;;;;5094969;28;20507;-70
2022/10/22 03:10:27;;;;;;;1999.90;999.90;;;15.20;99.90;;;;;;5095164;28;20169;-70
2022/10/22 03:12:52;;;;;;;1999.90;999.90;;;15.20;99.90;;;;;;5095096;28;20193;-70
2022/10/22 03:15:18;;;;;;;1999.90;999.90;;;15.20;99.90;;;;;;5095062;28;20171;-70
2022/10/22 03:17:43;;;;;;;1999.90;999.90;;;15.20;99.90;;;;;;5094736;28;20663;-69
2022/10/22 03:20:09;;;;;;;1999.90;999.90;;;15.20;99.90;;;;;;5094996;28;20553;-71
2022/10/22 03:22:38;;;;;;;1999.90;999.90;;;15.20;99.90;;;;;;5094858;28;20251;-70
2022/10/22 03:25:09;;;;;;;1999.90;999.90;;;15.20;99.90;;;;;;5094720;28;20213;-71
2022/10/22 03:27:37;;;;;;;1999.90;999.90;;;15.10;99.90;;;;;;5094863;28;20419;-71
2022/10/22 03:30:04;;;;;;;1999.90;999.90;;;15.00;99.90;;;;;;5094851;28;20397;-70
2022/10/22 03:32:29;;;;;;;1999.90;999.90;;;15.00;99.90;;;;;;5094632;28;20489;-70
2022/10/22 03:34:55;;;;;;;1999.90;999.90;;;14.90;99.90;;;;;;5094706;28;20410;-70
2022/10/22 03:37:22;;;;;;;1999.90;999.90;;;14.80;99.90;;;;;;5094565;28;20527;-69
2022/10/22 03:39:48;;;;;;;1999.90;999.90;;;14.80;99.90;;;;;;5094487;28;20188;-70
2022/10/22 03:42:15;;;;;;;1999.90;999.90;;;14.80;99.90;;;;;;5094480;28;20423;-69
2022/10/22 03:44:41;;;;;;;1999.90;999.90;;;14.70;99.90;;;;;;5094335;28;20210;-70
2022/10/22 03:47:07;;;;;;;1999.90;999.90;;;14.60;99.90;;;;;;5094188;28;20413;-69
2022/10/22 03:49:32;;;;;;;1999.90;999.90;;;14.60;99.90;;;;;;5094380;28;20404;-70
2022/10/22 03:52:07;;;;;;;1999.90;999.90;;;14.60;99.90;;;;;;5094221;28;20423;-70
2022/10/22 03:54:34;;;;;;;1999.90;999.90;;;14.60;99.90;;;;;;5094496;28;20608;-70
2022/10/22 03:56:59;;;;;;;1999.90;999.90;;;14.50;99.90;;;;;;5094218;28;20786;-70
2022/10/22 03:59:25;;;;;;;1999.90;999.90;;;14.40;99.90;;;;;;5094169;28;20409;-69
2022/10/22 04:01:50;;;;;;;1999.90;999.90;;;14.40;99.90;;;;;;5094129;28;20652;-70
2022/10/22 04:04:16;;;;;;;1999.90;999.90;;;14.30;99.90;;;;;;5094215;28;20606;-71
2022/10/22 04:06:41;;;;;;;1999.90;999.90;;;14.40;99.90;;;;;;5094036;28;20222;-71
2022/10/22 04:09:07;;;;;;;1999.90;999.90;;;14.30;99.90;;;;;;5094124;28;20555;-71
2022/10/22 04:11:32;;;;;;;1999.90;999.90;;;14.40;99.90;;;;;;5094079;28;20191;-70
2022/10/22 04:13:58;;;;;;;1999.90;999.90;;;14.40;99.90;;;;;;5094125;28;20167;-70
2022/10/22 04:16:23;;;;;;;1999.90;999.90;;;14.50;99.90;;;;;;5093888;28;20178;-71
2022/10/22 04:18:49;;;;;;;1999.90;999.90;;;14.60;99.90;;;;;;5093792;28;20182;-71
2022/10/22 04:21:18;;;;;;;1999.90;999.90;;;14.60;99.90;;;;;;5093729;28;20167;-70
2022/10/22 04:23:48;;;;;;;1999.90;999.90;;;14.60;99.90;;;;;;5093756;28;20249;-69
2022/10/22 04:26:16;;;;;;;1999.90;999.90;;;14.70;99.90;;;;;;5093633;28;20420;-69
2022/10/22 04:28:41;;;;;;;1999.90;999.90;;;14.70;99.90;;;;;;5093738;28;20437;-70
2022/10/22 04:31:12;;;;;;;1999.90;999.90;;;14.70;99.90;;;;;;5093498;28;20439;-70
2022/10/22 04:33:39;;;;;;;1999.90;999.90;;;14.70;99.90;;;;;;5093178;28;20188;-70
2022/10/22 04:36:11;;;;;;;1999.90;999.90;;;14.60;99.90;;;;;;5093395;28;20405;-70
2022/10/22 04:38:38;;;;;;;1999.90;999.90;;;14.60;99.90;;;;;;5093452;28;20516;-71
2022/10/22 04:41:12;;;;;;;1999.90;999.90;;;14.50;99.90;;;;;;5093360;28;20459;-70
2022/10/22 04:43:38;;;;;;;1999.90;999.90;;;14.50;99.90;;;;;;5093406;28;20403;-71
2022/10/22 04:46:04;;;;;;;1999.90;999.90;;;14.50;99.90;;;;;;5093625;28;20451;-70
2022/10/22 04:48:29;;;;;;;1999.90;999.90;;;14.50;99.90;;;;;;5093987;28;20421;-70
2022/10/22 04:50:57;;;;;;;1999.90;999.90;;;14.50;99.90;;;;;;5094190;28;20403;-70
2022/10/22 04:53:22;;;;;;;1999.90;999.90;;;14.50;99.90;;;;;;5093414;28;20183;-71
2022/10/22 04:55:48;;;;;;;1999.90;999.90;;;14.60;99.90;;;;;;5093158;28;20402;-71
2022/10/22 04:58:14;;;;;;;1999.90;999.90;;;14.60;99.90;;;;;;5092927;28;20173;-71
2022/10/22 05:00:39;;;;;;;1999.90;999.90;;;14.60;99.90;;;;;;5093042;28;20183;-71
2022/10/22 05:03:06;;;;;;;1999.90;999.90;;;14.50;99.90;;;;;;5092629;28;20585;-71
2022/10/22 05:05:31;;;;;;;1999.90;999.90;;;14.50;99.90;;;;;;5092971;28;20303;-71
2022/10/22 05:07:57;;;;;;;1999.90;999.90;;;14.50;99.90;;;;;;5092857;28;20471;-71
2022/10/22 05:10:22;;;;;;;1999.90;999.90;;;14.60;99.90;;;;;;5092862;28;20166;-70
2022/10/22 05:12:48;;;;;;;1999.90;999.90;;;14.60;99.90;;;;;;5092812;28;20592;-70
2022/10/22 05:15:14;;;;;;;1999.90;999.90;;;14.50;99.90;;;;;;5092724;28;20171;-70
2022/10/22 05:17:39;;;;;;;1999.90;999.90;;;14.40;99.90;;;;;;5092805;28;20182;-71
2022/10/22 05:20:05;;;;;;;1999.90;999.90;;;14.30;99.90;;;;;;5092959;28;20176;-71
2022/10/22 05:22:33;;;;;;;1999.90;999.90;;;14.30;99.90;;;;;;5092671;28;20187;-71
2022/10/22 05:24:59;;;;;;;1999.90;999.90;;;14.30;99.90;;;;;;5092788;28;20443;-71
2022/10/22 05:27:25;;;;;;;1999.90;999.90;;;14.20;99.90;;;;;;5092442;28;20894;-71
2022/10/22 05:29:50;;;;;;;1999.90;999.90;;;14.20;99.90;;;;;;5092655;28;20535;-71
2022/10/22 05:32:17;;;;;;;1999.90;999.90;;;14.10;99.90;;;;;;5092352;28;20188;-71
2022/10/22 05:34:43;;;;;;;1999.90;999.90;;;14.10;99.90;;;;;;5092529;28;20613;-71
2022/10/22 05:37:08;;;;;;;1999.90;999.90;;;14.00;99.90;;;;;;5092259;28;20420;-71
2022/10/22 05:39:39;;;;;;;1999.90;999.90;;;13.80;99.90;;;;;;5092313;28;20684;-71
2022/10/22 05:42:05;;;;;;;1999.90;999.90;;;13.70;99.90;;;;;;5092368;28;20674;-71
2022/10/22 05:44:30;;;;;;;1999.90;999.90;;;13.60;99.90;;;;;;5092090;28;20442;-71
2022/10/22 05:46:56;;;;;;;1999.90;999.90;;;13.60;99.90;;;;;;5092127;28;20189;-71
2022/10/22 05:49:22;;;;;;;1999.90;999.90;;;13.50;99.90;;;;;;5092311;28;20166;-71
2022/10/22 05:51:47;;;;;;;1999.90;999.90;;;13.50;99.90;;;;;;5092181;28;20186;-71
2022/10/22 05:54:20;;;;;;;1999.90;999.90;;;13.50;99.90;;;;;;5092213;28;20166;-71
2022/10/22 05:56:46;;;;;;;1999.90;999.90;;;13.50;99.90;;;;;;5092062;28;20175;-70
2022/10/22 05:59:12;;;;;;;1999.90;999.90;;;13.40;99.90;;;;;;5091931;28;20780;-71
2022/10/22 06:01:39;;;;;;;1999.90;999.90;;;13.40;99.90;;;;;;5091983;28;20193;-71
2022/10/22 06:04:08;;;;;;;1999.90;999.90;;;13.30;99.90;;;;;;5092185;28;20180;-71
2022/10/22 06:06:43;;;;;;;1999.90;999.90;;;13.30;99.90;;;;;;5091944;28;20401;-71
2022/10/22 06:09:30;;;;;;;1999.90;999.90;;;13.30;99.90;;;;;;5092142;28;20399;-70
2022/10/22 06:11:56;;;;;;;1999.90;999.90;;;13.40;99.90;;;;;;5092015;28;20407;-70
2022/10/22 06:14:23;;;;;;;1999.90;999.90;;;13.40;99.90;;;;;;5091992;28;20415;-71
2022/10/22 06:16:49;;;;;;;1999.90;999.90;;;13.50;99.90;;;;;;5094940;28;20908;-71
2022/10/22 06:19:17;;;;;;;1999.90;999.90;;;13.50;99.90;;;;;;5096132;28;20416;-70
2022/10/22 06:21:44;;;;;;;1999.90;999.90;;;13.40;99.90;;;;;;5096234;28;20432;-70
2022/10/22 06:24:10;;;;;;;1999.90;999.90;;;13.40;99.90;;;;;;5096060;28;20456;-71
2022/10/22 06:26:36;;;;;;;1999.90;999.90;;;13.40;99.90;;;;;;5095960;28;20463;-70
2022/10/22 06:29:02;;;;;;;1999.90;999.90;;;13.40;99.90;;;;;;5096397;28;20451;-70
2022/10/22 06:31:28;;;;;;;1999.90;999.90;;;13.40;99.90;;;;;;5096235;28;20901;-70
2022/10/22 06:33:55;;;;;;;1999.90;999.90;;;13.40;99.90;;;;;;5096066;28;20422;-71
2022/10/22 06:36:22;;;;;;;1999.90;999.90;;;13.50;99.90;;;;;;5096249;28;20165;-70
2022/10/22 06:38:52;;;;;;;1999.90;999.90;;;13.50;99.90;;;;;;5096022;28;20441;-70
2022/10/22 06:41:17;;;;;;;1999.90;999.90;;;13.60;99.90;;;;;;5096331;28;20753;-69
2022/10/22 06:43:45;;;;;;;1999.90;999.90;;;13.60;99.90;;;;;;5095692;28;20403;-70
2022/10/22 06:46:12;;;;;;;1999.90;999.90;;;13.60;99.90;;;;;;5095691;28;20565;-71
2022/10/22 06:48:39;;;;;;;1999.90;999.90;;;13.60;99.90;;;;;;5095439;28;20877;-71
2022/10/22 06:51:06;;;;;;;1999.90;999.90;;;13.60;99.90;;;;;;5095738;28;20401;-71
2022/10/22 06:53:32;;;;;;;1999.90;999.90;;;13.60;99.90;;;;;;5095688;28;20434;-71
2022/10/22 06:55:58;;;;;;;1999.90;999.90;;;13.60;99.90;;;;;;5095565;28;20412;-71
2022/10/22 06:58:24;;;;;;;1999.90;999.90;;;13.70;99.90;;;;;;5095267;28;20413;-71
2022/10/22 07:00:58;;;;;;;1999.90;999.90;;;13.70;99.90;;;;;;5095558;28;20170;-71
2022/10/22 07:03:24;;;;;;;1999.90;999.90;;;13.80;99.90;;;;;;5095302;28;20177;-71
2022/10/22 07:05:51;;;;;;;1999.90;999.90;;;14.00;99.90;;;;;;5095171;28;20961;-71
2022/10/22 07:08:16;;;;;;;1999.90;999.90;;;14.10;99.90;;;;;;5095254;28;20177;-71
2022/10/22 07:10:42;;;;;;;1999.90;999.90;;;14.20;99.90;;;;;;5095211;28;20491;-70
2022/10/22 07:13:08;;;;;;;1999.90;999.90;;;14.40;99.90;;;;;;5095128;28;20195;-71
2022/10/22 07:15:33;;;;;;;1999.90;999.90;;;14.40;99.90;;;;;;5095104;28;20173;-71
2022/10/22 07:17:59;;;;;;;1999.90;999.90;;;14.60;99.90;;;;;;5094834;28;20545;-71
2022/10/22 07:20:24;;;;;;;1999.90;999.90;;;14.70;99.90;;;;;;5095020;28;20172;-70
2022/10/22 07:22:50;;;;;;;1999.90;999.90;;;14.80;99.90;;;;;;5094930;28;20191;-69
2022/10/22 07:25:15;;;;;;;1999.90;999.90;;;14.90;99.90;;;;;;5094846;28;20197;-70
2022/10/22 07:27:41;;;;;;;1999.90;999.90;;;14.90;99.90;;;;;;5094010;28;20168;-69
2022/10/22 07:30:07;;;;;;;1999.90;999.90;;;14.90;99.90;;;;;;5094843;28;20162;-69
2022/10/22 07:32:33;;;;;;;1999.90;999.90;;;14.90;99.90;;;;;;5094595;28;20221;-70
2022/10/22 07:34:58;;;;;;;1999.90;999.90;;;14.90;99.90;;;;;;5094732;28;20409;-70
2022/10/22 07:37:24;;;;;;;1999.90;999.90;;;14.90;99.90;;;;;;5094742;28;20546;-70
2022/10/22 07:39:49;;;;;;;1999.90;999.90;;;15.00;99.90;;;;;;5094680;28;20590;-70
2022/10/22 07:42:15;;;;;;;1999.90;999.90;;;15.10;99.90;;;;;;5094575;28;20194;-70
2022/10/22 07:44:41;;;;;;;1999.90;999.90;;;15.10;99.90;;;;;;5094535;28;20192;-69
2022/10/22 07:47:06;;;;;;;1999.90;999.90;;;15.20;99.90;;;;;;5094460;28;20549;-70
2022/10/22 07:49:32;;;;;;;1999.90;999.90;;;15.20;99.90;;;;;;5094459;28;20163;-71
2022/10/22 07:51:57;;;;;;;1999.90;999.90;;;15.30;99.90;;;;;;5094497;28;20191;-71
2022/10/22 07:54:23;;;;;;;1999.90;999.90;;;15.50;99.90;;;;;;5094432;28;20170;-70
2022/10/22 07:56:49;;;;;;;1999.90;999.90;;;15.60;99.90;;;;;;5094247;28;20636;-70
2022/10/22 07:59:15;;;;;;;1999.90;999.90;;;15.70;99.90;;;;;;5094528;28;20408;-71
2022/10/22 08:01:40;;;;;;;1999.90;999.90;;;15.70;99.90;;;;;;5094536;28;20221;-70
2022/10/22 08:04:08;;;;;;;1999.90;999.90;;;15.80;99.90;;;;;;5094329;28;20176;-71
2022/10/22 08:06:34;;;;;;;1999.90;999.90;;;15.80;99.90;;;;;;5094194;28;20258;-70
2022/10/22 08:09:00;;;;;;;1999.90;999.90;;;15.90;99.90;;;;;;5094397;28;20827;-70
2022/10/22 08:11:26;;;;;;;1999.90;999.90;;;15.90;99.90;;;;;;5094311;28;20426;-71
2022/10/22 08:13:52;;;;;;;1999.90;999.90;;;15.90;99.90;;;;;;5094508;28;20909;-71
2022/10/22 08:16:18;;;;;;;1999.90;999.90;;;16.00;99.90;;;;;;5094114;28;20407;-71
2022/10/22 08:18:44;;;;;;;1999.90;999.90;;;16.10;99.90;;;;;;5094022;28;20535;-71
2022/10/22 08:21:11;;;;;;;1999.90;999.90;;;16.20;99.90;;;;;;5094183;28;20175;-71
2022/10/22 08:23:37;;;;;;;1999.90;999.90;;;16.20;99.90;;;;;;5091595;28;20201;-70
2022/10/22 08:26:03;;;;;;;1999.90;999.90;;;16.30;99.90;;;;;;5092907;28;20947;-70
2022/10/22 08:28:30;;;;;;;1999.90;999.90;;;16.40;99.90;;;;;;5083840;28;20405;-71
2022/10/22 08:30:55;;;;;;;1999.90;999.90;;;16.40;99.90;;;;;;5074707;28;20215;-70
2022/10/22 08:33:21;;;;;;;1999.90;999.90;;;16.50;99.90;;;;;;5091963;28;20474;-71
2022/10/22 08:35:48;;;;;;;1999.90;999.90;;;16.60;99.90;;;;;;5092570;28;20255;-72
2022/10/22 08:38:14;;;;;;;1999.90;999.90;;;16.60;99.90;;;;;;5091176;28;20200;-71
2022/10/22 08:40:41;;;;;;;1999.90;999.90;;;16.70;99.90;;;;;;5092104;28;20435;-71
2022/10/22 08:43:29;;;;;;;1999.90;999.90;;;16.70;99.90;;;;;;5092254;28;20242;-72
2022/10/22 08:46:34;;;;;;;1999.90;999.90;;;16.80;99.90;;;;;;5080521;28;20466;-71
2022/10/22 08:49:01;;;;;;;1999.90;999.90;;;16.90;99.90;;;;;;5009625;28;20423;-72
2022/10/22 08:51:33;;;;;;;1999.90;999.90;;;17.00;99.90;;;;;;5076201;28;20447;-73
2022/10/22 08:54:21;;;;;;;1999.90;999.90;;;17.10;99.90;;;;;;5117253;22;20573;-67
2022/10/22 08:56:58;;;;;;;1999.90;999.90;;;17.20;99.90;;;;;;5071650;28;20401;-67
2022/10/22 08:59:42;;;;;;;1999.90;999.90;;;17.30;99.90;;;;;;5071893;28;20398;-68
2022/10/22 09:02:27;;;;;;;1999.90;999.90;;;17.30;99.90;;;;;;5071375;28;20913;-66
2022/10/22 09:05:04;;;;;;;1999.90;999.90;;;17.30;99.90;;;;;;5072938;28;20949;-66
2022/10/22 09:07:29;;;;;;;1999.90;999.90;;;17.40;99.90;;;;;;5071306;28;20438;-67
2022/10/22 09:09:57;;;;;;;1999.90;999.90;;;17.40;99.90;;;;;;5071190;28;20427;-66
2022/10/22 09:12:25;;;;;;;1999.90;999.90;;;17.40;99.90;;;;;;5072065;28;20181;-66
2022/10/22 09:14:51;;;;;;;1999.90;999.90;;;17.50;99.90;;;;;;5070666;28;20485;-66
2022/10/22 09:17:23;;;;;;;1999.90;999.90;;;17.50;99.90;;;;;;5069927;28;20955;-68
2022/10/22 09:20:33;;;;;;;1999.90;999.90;;;17.50;99.90;;;;;;5071804;28;20206;-67
2022/10/22 09:23:22;;;;;;;1999.90;999.90;;;17.40;99.90;;;;;;5029040;28;20989;-68
2022/10/22 09:25:50;;;;;;;1999.90;999.90;;;17.20;99.90;;;;;;5029024;28;20463;-67
2022/10/22 09:28:16;;;;;;;1999.90;999.90;;;17.20;99.90;;;;;;5047587;28;20452;-67
2022/10/22 09:30:42;;;;;;;1999.90;999.90;;;17.20;99.90;;;;;;5071516;28;20417;-67
2022/10/22 09:33:29;;;;;;;1999.90;999.90;;;17.20;99.90;;;;;;5071792;28;20530;-67
2022/10/22 09:36:02;;;;;;;1999.90;999.90;;;17.20;99.90;;;;;;5070962;28;20848;-67
2022/10/22 09:38:30;;;;;;;1999.90;999.90;;;17.20;99.90;;;;;;5070675;28;20449;-67
2022/10/22 09:40:59;;;;;;;1999.90;999.90;;;17.00;99.90;;;;;;5071162;28;20412;-66
2022/10/22 09:43:25;;;;;;;1999.90;999.90;;;17.00;99.90;;;;;;5071452;28;20426;-66
2022/10/22 09:45:59;;;;;;;1999.90;999.90;;;17.00;99.90;;;;;;5070853;28;20463;-67
2022/10/22 09:49:05;;;;;;;1999.90;999.90;;;17.00;99.90;;;;;;5071026;28;20405;-66
2022/10/22 09:51:52;;;;;;;1999.90;999.90;;;17.00;99.90;;;;;;5071502;28;20444;-66
2022/10/22 09:54:23;;;;;;;1999.90;999.90;;;17.00;99.90;;;;;;5070812;28;20408;-65
2022/10/22 09:56:55;;;;;;;1999.90;999.90;;;17.10;99.90;;;;;;5070391;28;20411;-66
2022/10/22 09:59:27;;;;;;;1999.90;999.90;;;17.00;99.90;;;;;;5071211;28;20449;-66
2022/10/22 10:02:11;;;;;;;1999.90;999.90;;;17.10;99.90;;;;;;5070993;28;20509;-66
2022/10/22 10:04:47;;;;;;;1999.90;999.90;;;17.10;99.90;;;;;;5071444;28;20584;-66
2022/10/22 10:07:25;;;;;;;1999.90;999.90;;;17.10;99.90;;;;;;5070514;28;20921;-67
2022/10/22 10:09:52;;;;;;;1999.90;999.90;;;17.10;99.90;;;;;;5071352;28;20511;-66
2022/10/22 10:12:36;;;;;;;1999.90;999.90;;;17.10;99.90;;;;;;5071195;28;20423;-66
2022/10/22 10:15:12;;;;;;;1999.90;999.90;;;17.10;99.90;;;;;;5070374;28;20404;-67
2022/10/22 10:17:58;;;;;;;1999.90;999.90;;;17.10;99.90;;;;;;5070137;28;20464;-66
2022/10/22 10:20:43;;;;;;;1999.90;999.90;;;17.00;99.90;;;;;;5071407;28;21108;-66
2022/10/22 10:23:40;;;;;;;1999.90;999.90;;;17.00;99.90;;;;;;5070510;28;20432;-66
2022/10/22 10:26:19;;;;;;;1999.90;999.90;;;17.00;99.90;;;;;;5070826;28;20495;-66
2022/10/22 10:28:59;;;;;;;1999.90;999.90;;;17.00;99.90;;;;;;5070654;28;20414;-65
2022/10/22 10:31:43;;;;;;;1999.90;999.90;;;17.10;99.90;;;;;;5070213;28;20403;-66
2022/10/22 10:34:27;;;;;;;1999.90;999.90;;;17.20;99.90;;;;;;5070687;28;20421;-66
2022/10/22 10:37:17;;;;;;;1999.90;999.90;;;17.20;99.90;;;;;;5069457;28;20397;-66
2022/10/22 10:39:58;;;;;;;1999.90;999.90;;;17.20;99.90;;;;;;5070497;28;20905;-66
2022/10/22 10:42:35;;;;;;;1999.90;999.90;;;17.20;99.90;;;;;;5070839;28;20409;-66
2022/10/22 10:45:17;;;;;;;1999.90;999.90;;;17.30;99.90;;;;;;5070701;28;20508;-66
2022/10/22 10:48:15;;;;;;;1999.90;999.90;;;17.30;99.90;;;;;;5070081;28;20394;-67
2022/10/22 10:51:13;;;;;;;1999.90;999.90;;;17.30;99.90;;;;;;5070968;28;20985;-66
2022/10/22 10:53:59;;;;;;;1999.90;999.90;;;17.30;99.90;;;;;;5070226;28;20441;-66
2022/10/22 10:56:30;;;;;;;1999.90;999.90;;;17.30;99.90;;;;;;5070162;28;20769;-65
2022/10/22 10:59:32;;;;;;;1999.90;999.90;;;17.30;99.90;;;;;;5070084;28;20394;-65
2022/10/22 11:02:28;;;;;;;1999.90;999.90;;;17.30;99.90;;;;;;5071930;28;20425;-66
2022/10/22 11:05:14;;;;;;;1999.90;999.90;;;17.30;99.90;;;;;;5074581;28;20438;-65
2022/10/22 11:07:52;;;;;;;1999.90;999.90;;;17.20;99.90;;;;;;5073044;28;20432;-66
2022/10/22 11:10:23;;;;;;;1999.90;999.90;;;17.30;99.90;;;;;;5074546;28;20404;-66
2022/10/22 11:12:51;;;;;;;1999.90;999.90;;;17.20;99.90;;;;;;5074290;28;20865;-65
2022/10/22 11:15:29;;;;;;;1999.90;999.90;;;17.20;99.90;;;;;;5073556;28;20432;-66
2022/10/22 11:18:02;;;;;;;1999.90;999.90;;;17.20;99.90;;;;;;5073159;28;20405;-66
2022/10/22 11:20:35;;;;;;;1999.90;999.90;;;17.10;99.90;;;;;;5074131;28;20912;-66
2022/10/22 11:23:10;;;;;;;1999.90;999.90;;;17.20;99.90;;;;;;5073792;28;20424;-66
2022/10/22 11:25:46;;;;;;;1999.90;999.90;;;17.20;99.90;;;;;;5073996;28;20550;-66
2022/10/22 11:28:27;;;;;;;1999.90;999.90;;;17.20;99.90;;;;;;5073565;28;20419;-66
2022/10/22 11:31:07;;;;;;;1999.90;999.90;;;17.20;99.90;;;;;;5073515;28;20496;-66
2022/10/22 11:33:47;;;;;;;1999.90;999.90;;;17.20;99.90;;;;;;5073933;28;20463;-66
2022/10/22 11:36:14;;;;;;;1999.90;999.90;;;17.20;99.90;;;;;;5072725;28;20407;-66
2022/10/22 11:38:39;;;;;;;1999.90;999.90;;;17.30;99.90;;;;;;5073007;28;20433;-66
2022/10/22 11:41:14;;;;;;;1999.90;999.90;;;17.40;99.90;;;;;;5073692;28;20438;-66
2022/10/22 11:44:21;;;;;;;1999.90;999.90;;;17.50;99.90;;;;;;5073205;28;20185;-67
2022/10/22 11:46:53;;;;;;;1999.90;999.90;;;17.70;99.90;;;;;;5073217;28;20405;-66
2022/10/22 11:49:39;;;;;;;1999.90;999.90;;;17.90;99.90;;;;;;5073341;28;20401;-67
2022/10/22 11:52:26;;;;;;;1999.90;999.90;;;18.00;99.90;;;;;;5073078;28;20406;-66
2022/10/22 11:54:57;;;;;;;1999.90;999.90;;;18.20;99.90;;;;;;5073378;28;20417;-66
2022/10/22 11:57:35;;;;;;;1999.90;999.90;;;18.40;99.90;;;;;;5072518;28;21003;-66
2022/10/22 12:00:05;;;;;;;1999.90;999.90;;;18.60;99.90;;;;;;5073045;28;20404;-66
2022/10/22 12:02:37;;;;;;;1999.90;999.90;;;18.70;99.90;;;;;;5073472;28;20444;-66
2022/10/22 12:05:31;;;;;;;1999.90;999.90;;;18.70;99.90;;;;;;5073367;28;20443;-65
2022/10/22 12:08:08;;;;;;;1999.90;999.90;;;18.70;99.90;;;;;;5072254;28;20867;-66
2022/10/22 12:10:54;;;;;;;1999.90;999.90;;;18.80;99.90;;;;;;5073351;28;20429;-66
2022/10/22 12:13:23;;;;;;;1999.90;999.90;;;18.90;99.90;;;;;;5071740;28;20461;-66
2022/10/22 12:15:55;;;;;;;1999.90;999.90;;;18.90;99.90;;;;;;5072811;28;20418;-66
2022/10/22 12:18:31;;;;;;;1999.90;999.90;;;19.00;99.90;;;;;;5072542;28;20776;-67